Time;durP1;ratioP1;P1;durP2;ratioP2;P2;SDS_P1;SDS_P2;PMS_P1;PMS_P2;Temp;Humidity;BMP_temperature;BMP_pressure;BME280_temperature;BME280_humidity;BME280_pressure;Samples;Min_cycle;Max_cycle;Signal;HPM_P1;HPM_P2
2022/04/13 00:01:45;;;;;;;8.63;3.92;;;;;;;5.68;48.11;95113.97;6200678;23;20050;-86
2022/04/13 00:04:11;;;;;;;7.13;3.28;;;;;;;7.63;47.94;95393.41;6200554;23;20089;-86
2022/04/13 00:06:38;;;;;;;8.82;3.67;;;;;;;7.53;48.09;95383.56;6200792;23;20043;-86
2022/04/13 00:09:08;;;;;;;8.35;3.60;;;;;;;8.26;47.74;95490.41;6199947;23;20004;-86
2022/04/13 00:11:34;;;;;;;9.15;3.92;;;;;;;7.94;48.12;95469.22;6225419;23;20019;-86
2022/04/13 00:14:00;;;;;;;9.57;4.15;;;;;;;8.12;48.25;95483.94;6199744;23;20104;-86
2022/04/13 00:16:26;;;;;;;11.77;3.90;;;;;;;6.27;48.52;95227.38;6201158;23;20409;-86
2022/04/13 00:18:52;;;;;;;9.77;4.22;;;;;;;7.66;48.30;95430.66;6201561;23;20070;-86
2022/04/13 00:21:18;;;;;;;9.25;4.38;;;;;;;6.82;48.59;95305.50;6228463;23;20011;-86
2022/04/13 00:23:43;;;;;;;12.32;4.38;;;;;;;7.09;49.18;95389.94;6228009;23;20434;-86
2022/04/13 00:26:09;;;;;;;10.43;4.88;;;;;;;7.23;49.62;95428.09;6228116;23;20447;-86
2022/04/13 00:28:34;;;;;;;8.23;4.93;;;;;;;7.51;50.01;95475.38;6201517;23;20004;-86
2022/04/13 00:31:00;;;;;;;8.85;4.50;;;;;;;7.66;50.34;95491.38;6201099;23;20023;-86
2022/04/13 00:33:25;;;;;;;11.98;5.00;;;;;;;7.83;49.97;95487.88;6200768;23;20051;-86
2022/04/13 00:35:53;;;;;;;12.57;5.07;;;;;;;7.48;50.15;95420.44;6198900;23;20506;-87
2022/04/13 00:38:21;;;;;;;10.60;4.55;;;;;;;7.25;50.55;95437.31;6227599;23;20441;-87
2022/04/13 00:40:47;;;;;;;14.73;4.93;;;;;;;7.55;50.65;95465.13;6245407;22;20033;-86
2022/04/13 00:43:12;;;;;;;11.88;4.75;;;;;;;6.69;50.83;95329.59;6256588;22;20011;-85
2022/04/13 00:45:38;;;;;;;7.57;4.70;;;;;;;7.20;50.93;95431.19;6256666;22;20094;-85
2022/04/13 00:48:06;;;;;;;12.13;5.50;;;;;;;6.63;51.02;95336.66;6258149;22;20083;-85
2022/04/13 00:50:32;;;;;;;9.50;4.18;;;;;;;6.56;51.12;95328.91;6258705;22;20069;-86
2022/04/13 00:52:59;;;;;;;10.82;5.25;;;;;;;7.42;51.22;95465.50;6256083;22;20011;-87
2022/04/13 00:55:26;;;;;;;7.97;4.72;;;;;;;6.88;51.69;95402.06;6256647;22;20112;-86
2022/04/13 00:57:57;;;;;;;10.43;5.38;;;;;;;6.86;52.06;95386.50;6255933;22;20483;-86
2022/04/13 01:00:23;;;;;;;9.23;4.17;;;;;;;7.40;52.04;95493.97;6255498;22;20019;-86
2022/04/13 01:02:49;;;;;;;11.18;4.35;;;;;;;6.44;52.11;95351.16;6256568;22;20250;-86
2022/04/13 01:05:16;;;;;;;13.93;4.95;;;;;;;7.16;51.45;95440.66;6255613;22;20011;-86
2022/04/13 01:07:42;;;;;;;10.15;4.30;;;;;;;7.22;51.79;95466.06;6255120;22;20216;-86
2022/04/13 01:10:08;;;;;;;13.52;4.93;;;;;;;7.48;52.13;95496.97;6255243;22;20015;-86
2022/04/13 01:12:34;;;;;;;12.57;4.45;;;;;;;7.32;53.03;95501.25;6256317;22;20018;-86
2022/04/13 01:15:00;;;;;;;11.50;5.22;;;;;;;6.36;52.79;95356.84;6256179;22;20124;-86
2022/04/13 01:17:25;;;;;;;12.63;4.47;;;;;;;7.31;52.52;95497.06;6255594;22;20119;-86
2022/04/13 01:19:51;;;;;;;13.20;5.35;;;;;;;6.39;53.21;95412.47;6256353;22;20727;-85
2022/04/13 01:22:21;;;;;;;13.55;5.25;;;;;;;7.01;53.38;95472.13;6255682;22;20007;-86
2022/04/13 01:24:47;;;;;;;10.57;4.88;;;;;;;7.21;52.25;95499.53;6255017;22;20046;-86
2022/04/13 01:27:14;;;;;;;6.13;4.25;;;;;;;6.24;53.06;95361.41;6256188;22;20378;-86
2022/04/13 01:29:44;;;;;;;12.70;5.15;;;;;;;5.01;52.90;95185.06;6256127;22;20008;-85
2022/04/13 01:32:11;;;;;;;12.63;4.72;;;;;;;7.13;52.91;95501.81;6254994;22;20035;-86
2022/04/13 01:34:45;;;;;;;17.15;7.43;;;;;;;6.94;53.51;95503.94;6255547;22;20284;-85
2022/04/13 01:37:10;;;;;;;19.40;9.55;;;;;;;6.25;53.42;95400.69;6256197;22;20019;-85
2022/04/13 01:39:36;;;;;;;20.20;8.93;;;;;;;5.82;53.32;95306.50;6255892;22;20439;-85
2022/04/13 01:42:01;;;;;;;18.25;10.27;;;;;;;5.18;53.41;95242.09;6255426;22;20107;-85
2022/04/13 01:44:27;;;;;;;24.63;10.18;;;;;;;5.48;53.56;95316.25;6258675;22;20457;-85
2022/04/13 01:46:52;;;;;;;21.23;9.75;;;;;;;6.88;54.00;95515.41;6256983;22;20023;-85
2022/04/13 01:49:18;;;;;;;18.90;7.95;;;;;;;3.79;54.01;95039.56;6257148;22;20014;-85
2022/04/13 01:51:43;;;;;;;18.30;8.07;;;;;;;4.18;54.16;95091.19;6257344;22;20279;-85
2022/04/13 01:54:09;;;;;;;17.60;8.73;;;;;;;5.96;54.61;95363.09;6259847;22;20175;-85
2022/04/13 01:56:34;;;;;;;15.60;7.60;;;;;;;4.05;53.88;95080.16;6257362;22;20042;-85
2022/04/13 01:59:00;;;;;;;15.68;8.25;;;;;;;6.14;54.24;95449.75;6257650;22;20351;-85
2022/04/13 02:01:25;;;;;;;15.60;8.18;;;;;;;1.35;53.73;94690.88;6258406;22;20023;-85
2022/04/13 02:03:51;;;;;;;17.48;8.57;;;;;;;4.61;54.55;95158.88;6258902;22;20086;-85
2022/04/13 02:06:16;;;;;;;17.00;8.68;;;;;;;6.80;54.57;95492.91;6260402;22;20004;-85
2022/04/13 02:08:42;;;;;;;21.50;8.60;;;;;;;5.64;54.51;95362.81;6258400;22;20008;-85
2022/04/13 02:11:07;;;;;;;18.10;8.50;;;;;;;6.05;54.69;95405.59;6260272;22;20434;-85
2022/04/13 02:13:33;;;;;;;18.10;8.50;;;;;;;6.52;54.34;95467.47;6257771;22;20003;-85
2022/04/13 02:15:58;;;;;;;18.38;8.32;;;;;;;3.47;54.65;94984.13;6260266;22;20100;-85
2022/04/13 02:18:24;;;;;;;20.48;7.88;;;;;;;2.86;54.19;94896.50;6258391;22;20118;-85
2022/04/13 02:20:49;;;;;;;20.40;7.93;;;;;;;2.89;54.80;94937.94;6258232;22;20127;-85
2022/04/13 02:23:15;;;;;;;20.85;8.30;;;;;;;6.22;54.99;95430.13;6260428;22;20499;-85
2022/04/13 02:25:40;;;;;;;19.00;8.60;;;;;;;2.18;55.04;94823.09;6261402;22;20008;-85
2022/04/13 02:28:07;;;;;;;24.02;8.60;;;;;;;6.08;55.30;95452.53;6259485;22;20011;-85
2022/04/13 02:30:33;;;;;;;20.88;9.65;;;;;;;6.02;55.13;95416.63;6262833;22;20557;-85
2022/04/13 02:32:59;;;;;;;26.60;8.68;;;;;;;4.57;55.50;95188.50;6264137;22;20031;-85
2022/04/13 02:35:24;;;;;;;18.95;8.00;;;;;;;6.03;55.44;95411.09;6263592;22;20007;-86
2022/04/13 02:37:50;;;;;;;25.15;9.25;;;;;;;6.14;55.50;95435.78;6263659;22;20447;-85
2022/04/13 02:40:16;;;;;;;36.60;9.93;;;;;;;3.86;55.07;95080.34;6262311;22;20075;-84
2022/04/13 02:42:42;;;;;;;21.98;8.93;;;;;;;6.33;55.21;95460.06;6262524;22;20019;-84
2022/04/13 02:45:08;;;;;;;29.17;8.68;;;;;;;4.52;55.66;95170.81;6263590;22;20007;-85
2022/04/13 02:47:35;;;;;;;22.13;8.98;;;;;;;3.88;55.53;95106.34;6265160;22;20011;-85
2022/04/13 02:50:00;;;;;;;27.77;9.57;;;;;;;2.49;55.94;94916.94;6261545;22;20011;-85
2022/04/13 02:52:28;;;;;;;20.35;8.43;;;;;;;0.68;55.60;94625.13;6263677;22;20427;-85
2022/04/13 02:54:56;;;;;;;20.25;8.48;;;;;;;6.18;55.79;95440.31;6262443;22;20088;-85
2022/04/13 02:57:22;;;;;;;26.98;11.25;;;;;;;2.64;55.23;94883.22;6259638;22;20015;-85
2022/04/13 02:59:48;;;;;;;25.42;10.20;;;;;;;1.22;55.51;94658.97;6261908;22;20311;-85
2022/04/13 03:02:15;;;;;;;32.05;10.82;;;;;;;5.19;56.08;95364.66;6261768;22;20011;-85
2022/04/13 03:04:46;;;;;;;27.35;11.35;;;;;;;6.40;55.89;95485.19;6260465;22;20042;-85
2022/04/13 03:07:13;;;;;;;32.97;10.95;;;;;;;3.46;56.22;95076.91;6258925;22;20521;-85
2022/04/13 03:09:39;;;;;;;23.15;10.23;;;;;;;5.63;56.77;95424.38;6259057;22;20008;-85
2022/04/13 03:12:06;;;;;;;32.03;10.55;;;;;;;6.09;56.05;95464.66;6258350;22;20039;-84
2022/04/13 03:14:32;;;;;;;35.63;10.40;;;;;;;5.24;56.87;95347.13;6258500;22;20018;-85
2022/04/13 03:16:57;;;;;;;33.97;9.52;;;;;;;4.02;56.07;95154.13;6258448;22;20442;-85
2022/04/13 03:19:23;;;;;;;29.70;12.18;;;;;;;3.55;56.68;95085.22;6258947;22;20086;-85
2022/04/13 03:21:51;;;;;;;29.80;10.05;;;;;;;3.58;56.55;95114.44;6257919;22;20011;-85
2022/04/13 03:24:25;;;;;;;29.10;11.10;;;;;;;3.35;56.74;95088.25;6257213;22;20018;-85
2022/04/13 03:26:52;;;;;;;24.98;10.10;;;;;;;5.15;56.59;95355.63;6257739;22;20434;-85
2022/04/13 03:29:18;;;;;;;25.08;10.30;;;;;;;6.06;56.86;95507.25;6259003;22;20015;-85
2022/04/13 03:31:43;;;;;;;22.55;8.82;;;;;;;3.35;58.19;95115.25;6259434;22;20011;-85
2022/04/13 03:34:09;;;;;;;26.02;9.30;;;;;;;5.54;58.82;95502.06;6257613;22;20728;-85
2022/04/13 03:36:39;;;;;;;21.48;10.00;;;;;;;5.11;59.93;95488.59;6257397;22;20018;-85
2022/04/13 03:39:05;;;;;;;25.42;9.82;;;;;;;4.75;59.83;95426.56;6253506;22;20047;-85
2022/04/13 03:41:31;;;;;;;25.50;9.93;;;;;;;4.52;59.68;95380.13;6202039;23;20391;-85
2022/04/13 03:43:56;;;;;;;31.52;10.95;;;;;;;4.22;59.65;95330.38;6201635;23;20004;-85
2022/04/13 03:46:22;;;;;;;23.08;9.15;;;;;;;5.09;59.45;95496.69;6201411;23;20011;-85
2022/04/13 03:48:47;;;;;;;27.33;9.40;;;;;;;2.30;59.78;95068.03;6200944;22;20012;-85
2022/04/13 03:51:13;;;;;;;25.73;10.82;;;;;;;2.48;60.53;95118.72;6201935;23;20221;-85
2022/04/13 03:53:38;;;;;;;32.17;10.45;;;;;;;4.69;59.50;95417.78;6229353;23;20008;-85
2022/04/13 03:56:04;;;;;;;26.10;9.98;;;;;;;5.27;59.81;95535.16;6201528;23;20276;-85
2022/04/13 03:58:29;;;;;;;20.23;8.63;;;;;;;3.80;59.10;95262.31;6202013;23;20008;-85
2022/04/13 04:00:55;;;;;;;30.13;10.40;;;;;;;3.38;58.75;95285.19;6202929;23;20012;-85
2022/04/13 04:03:20;;;;;;;31.23;9.73;;;;;;;3.06;58.75;95182.47;6229999;23;20447;-85
2022/04/13 04:05:46;;;;;;;32.25;11.98;;;;;;;5.09;58.71;95495.88;6204339;23;20008;-85
2022/04/13 04:08:11;;;;;;;33.40;14.25;;;;;;;2.17;58.94;94989.75;6203647;23;20012;-85
2022/04/13 04:10:37;;;;;;;40.70;11.60;;;;;;;4.93;58.49;95431.69;6203183;23;20181;-85
2022/04/13 04:13:02;;;;;;;39.65;13.98;;;;;;;5.86;58.46;95555.06;6204140;23;20008;-84
2022/04/13 04:15:28;;;;;;;32.85;12.95;;;;;;;5.18;58.10;95448.00;6229448;23;20019;-84
2022/04/13 04:17:54;;;;;;;35.40;15.15;;;;;;;5.89;58.13;95553.81;6202152;23;20098;-86
2022/04/13 04:20:19;;;;;;;39.80;14.43;;;;;;;5.22;57.84;95453.56;6202568;23;20455;-87
2022/04/13 04:22:45;;;;;;;44.65;13.82;;;;;;;3.92;57.24;95264.91;6202842;23;20035;-87
2022/04/13 04:25:10;;;;;;;32.10;14.82;;;;;;;3.88;57.70;95230.47;6233735;23;20027;-87
2022/04/13 04:27:36;;;;;;;36.05;15.07;;;;;;;2.24;57.06;94982.59;6207963;23;20378;-87
2022/04/13 04:30:03;;;;;;;40.42;15.25;;;;;;;0.26;56.12;94714.81;6204575;23;20012;-85
2022/04/13 04:32:29;;;;;;;36.33;15.18;;;;;;;0.86;55.13;94785.25;6198304;23;20424;-86
2022/04/13 04:34:55;;;;;;;50.80;15.63;;;;;;;3.46;55.36;95176.56;6195961;23;20135;-86
2022/04/13 04:37:20;;;;;;;42.60;15.32;;;;;;;0.17;55.10;94713.53;6174519;23;20074;-86
2022/04/13 04:39:50;;;;;;;39.75;15.07;;;;;;;2.50;55.41;95072.19;6219514;22;20015;-89
2022/04/13 04:42:45;;;;;;;29.95;12.18;;;;;;;1.27;54.42;94875.88;6249965;22;20011;-87
2022/04/13 04:45:36;;;;;;;33.60;11.27;;;;;;;2.41;54.08;95018.56;6260254;22;20409;-87
2022/04/13 04:48:04;;;;;;;26.67;10.90;;;;;;;0.49;53.21;94737.59;6244968;22;21022;-86
2022/04/13 04:50:31;;;;;;;28.48;11.23;;;;;;;3.77;53.08;95278.47;6252859;22;20015;-86
2022/04/13 04:52:57;;;;;;;27.15;11.40;;;;;;;0.69;52.88;94770.22;6250671;22;20500;-84
2022/04/13 04:55:25;;;;;;;33.58;12.05;;;;;;;0.24;52.62;94693.38;6253674;22;20011;-87
2022/04/13 04:57:51;;;;;;;29.10;11.38;;;;;;;2.72;52.86;95102.81;6249272;22;20011;-87
2022/04/13 05:00:26;;;;;;;18.55;9.48;;;;;;;2.56;52.69;95045.88;6243115;22;20035;-86
2022/04/13 05:02:52;;;;;;;25.73;10.35;;;;;;;0.53;52.68;94723.91;6249840;22;20007;-87
2022/04/13 05:05:19;;;;;;;33.40;10.63;;;;;;;5.60;52.80;95545.84;6248070;22;20012;-87
2022/04/13 05:07:57;;;;;;;22.48;10.32;;;;;;;5.21;52.58;95515.88;6254558;22;20019;-85
2022/04/13 05:10:22;;;;;;;25.27;10.48;;;;;;;0.54;52.34;94755.97;6253144;22;20706;-88
2022/04/13 05:13:09;;;;;;;29.30;10.80;;;;;;;1.94;53.14;94981.84;6250727;22;20014;-86
2022/04/13 05:15:41;;;;;;;31.20;11.13;;;;;;;2.89;52.42;95087.25;6250462;22;20090;-87
2022/04/13 05:18:14;;;;;;;22.55;10.73;;;;;;;0.29;52.76;94691.72;6250084;22;20020;-88
2022/04/13 05:23:51;;;;;;;24.67;10.27;;;;;;;6.24;53.51;95607.16;6241214;22;20102;-87
2022/04/13 05:26:21;;;;;;;24.83;9.88;;;;;;;4.00;53.40;95293.41;6253525;22;20442;-87
2022/04/13 05:29:11;;;;;;;27.63;11.18;;;;;;;4.06;53.23;95237.38;6250843;22;20227;-86
2022/04/13 05:31:46;;;;;;;20.02;9.27;;;;;;;6.25;53.96;95635.09;6251006;22;20012;-86
2022/04/13 05:34:12;;;;;;;26.20;10.40;;;;;;;0.88;53.29;94799.69;6238849;22;20015;-87
2022/04/13 05:36:37;;;;;;;22.80;10.57;;;;;;;0.58;54.07;94791.06;6246797;22;20519;-88
2022/04/13 05:39:03;;;;;;;21.08;10.57;;;;;;;5.14;54.35;95494.16;6240536;22;20516;-88
2022/04/13 05:41:35;;;;;;;17.20;8.95;;;;;;;5.88;54.75;95623.28;6193031;23;20026;-88
2022/04/13 05:44:00;;;;;;;25.23;9.82;;;;;;;5.32;54.84;95522.16;6213175;23;20122;-88
2022/04/13 05:46:34;;;;;;;20.38;9.57;;;;;;;5.87;55.17;95590.88;6191734;23;20012;-86
2022/04/13 05:49:00;;;;;;;24.40;10.55;;;;;;;5.73;54.76;95563.22;6193590;23;20008;-87
2022/04/13 05:51:26;;;;;;;28.30;10.57;;;;;;;4.71;53.93;95367.66;6195705;23;20035;-87
2022/04/13 05:53:52;;;;;;;23.33;10.40;;;;;;;6.31;53.96;95591.19;6192463;23;20167;-88
2022/04/13 05:56:18;;;;;;;28.38;10.98;;;;;;;6.24;54.93;95565.00;6199318;23;20071;-87
2022/04/13 05:58:43;;;;;;;30.27;10.43;;;;;;;4.45;54.38;95254.19;6196644;23;20010;-86
2022/04/13 06:01:09;;;;;;;30.60;11.95;;;;;;;6.49;55.05;95618.13;6201465;23;20239;-86
2022/04/13 06:03:40;;;;;;;35.97;11.43;;;;;;;1.93;54.95;94927.94;6196677;23;20514;-87
2022/04/13 06:06:05;;;;;;;25.95;9.95;;;;;;;2.06;53.60;94885.88;6194172;23;20034;-87
2022/04/13 06:08:40;;;;;;;24.42;10.57;;;;;;;1.46;53.39;94793.78;6200300;23;20447;-86
2022/04/13 06:11:06;;;;;;;26.52;10.55;;;;;;;4.81;53.31;95325.78;6195921;23;20019;-86
2022/04/13 06:13:31;;;;;;;26.65;11.50;;;;;;;6.87;52.89;95587.63;6200265;23;20099;-87
2022/04/13 06:15:57;;;;;;;31.85;11.32;;;;;;;4.56;53.75;95234.97;6203849;23;20015;-87
2022/04/13 06:18:25;;;;;;;21.63;8.65;;;;;;;5.42;52.18;95389.00;6200617;23;20077;-89
2022/04/13 06:20:51;;;;;;;24.75;8.82;;;;;;;2.79;51.52;94999.78;6202238;23;20016;-89
2022/04/13 06:23:18;;;;;;;21.48;9.88;;;;;;;4.74;52.12;95262.88;6196062;23;20229;-87
2022/04/13 06:25:44;;;;;;;25.23;9.98;;;;;;;1.79;53.28;94775.72;6217372;23;20193;-89
2022/04/13 06:28:10;;;;;;;26.67;11.30;;;;;;;6.97;52.45;95593.88;6220694;23;20356;-88
2022/04/13 06:30:36;;;;;;;33.22;12.68;;;;;;;5.16;51.80;95309.91;6192993;23;20257;-89
2022/04/13 06:33:01;;;;;;;30.35;12.02;;;;;;;2.45;51.29;94868.69;6194383;23;20953;-90
2022/04/13 06:35:27;;;;;;;23.60;9.05;;;;;;;3.97;50.84;95081.31;6197247;23;20008;-89
2022/04/13 06:37:52;;;;;;;15.30;8.65;;;;;;;2.20;50.33;94781.81;6197477;23;20178;-88
2022/04/13 06:40:21;;;;;;;18.52;8.82;;;;;;;2.22;50.23;94784.97;6232463;22;20027;-88
2022/04/13 06:42:49;;;;;;;16.38;9.20;;;;;;;2.67;49.93;94855.78;6255372;22;20009;-89
2022/04/13 06:45:18;;;;;;;21.15;10.43;;;;;;;2.83;50.52;94852.41;6253136;22;20011;-89
2022/04/13 06:47:44;;;;;;;35.00;11.85;;;;;;;2.87;51.22;94895.47;6253924;22;20019;-88
2022/04/13 06:50:11;;;;;;;30.05;13.75;;;;;;;4.92;51.08;95154.94;6256827;22;20027;-87
2022/04/13 06:52:40;;;;;;;32.53;13.35;;;;;;;2.99;50.71;94883.13;6254630;22;20199;-89
2022/04/13 06:55:10;;;;;;;32.70;12.70;;;;;;;2.85;50.61;94813.69;6255629;22;20137;-88
2022/04/13 06:57:39;;;;;;;30.55;13.10;;;;;;;3.14;50.30;94872.13;6253922;22;20282;-89
2022/04/13 07:00:09;;;;;;;19.88;11.23;;;;;;;4.73;49.81;95105.50;6253605;22;20122;-88
2022/04/13 07:02:36;;;;;;;26.35;12.27;;;;;;;4.95;49.43;95158.94;6253133;22;20015;-89
2022/04/13 07:05:02;;;;;;;21.90;11.27;;;;;;;3.15;49.67;94820.50;6253244;22;20094;-89
2022/04/13 07:07:28;;;;;;;22.67;11.15;;;;;;;5.38;49.84;95155.63;6230214;22;20943;-90
2022/04/13 07:09:54;;;;;;;23.30;10.70;;;;;;;6.49;50.28;95343.31;6254108;22;20217;-90
2022/04/13 07:12:19;;;;;;;24.13;10.20;;;;;;;6.54;50.58;95340.75;6252690;22;20035;-88
2022/04/13 07:14:45;;;;;;;23.50;11.00;;;;;;;3.48;49.56;94893.97;6252306;22;20091;-87
2022/04/13 07:17:10;;;;;;;18.13;9.40;;;;;;;3.19;48.66;94809.34;6252698;22;20012;-87
2022/04/13 07:19:36;;;;;;;22.35;8.85;;;;;;;6.54;48.67;95288.84;6252332;22;20019;-88
2022/04/13 07:22:02;;;;;;;18.35;8.82;;;;;;;4.03;49.71;94932.66;6251784;22;20015;-88
2022/04/13 07:24:34;;;;;;;19.60;9.40;;;;;;;5.22;48.46;95130.16;6247094;22;20464;-86
2022/04/13 07:27:00;;;;;;;16.15;8.00;;;;;;;6.48;47.95;95289.84;6251085;22;20020;-88
2022/04/13 07:29:26;;;;;;;19.42;7.90;;;;;;;8.48;48.53;95612.72;6249507;22;20547;-87
2022/04/13 07:31:54;;;;;;;25.83;8.45;;;;;;;6.48;48.37;95325.94;6248022;22;20020;-88
2022/04/13 07:34:20;;;;;;;26.50;8.35;;;;;;;5.39;47.35;95138.81;6253600;22;20520;-87
2022/04/13 07:36:48;;;;;;;22.65;9.05;;;;;;;5.63;48.04;95129.69;6243239;22;20122;-87
2022/04/13 07:39:14;;;;;;;17.73;8.40;;;;;;;5.80;48.17;95137.53;6248687;22;20114;-82
2022/04/13 07:41:40;;;;;;;18.17;8.65;;;;;;;8.88;48.01;95601.72;6249752;22;20590;-83
2022/04/13 07:44:09;;;;;;;19.55;7.75;;;;;;;5.05;47.11;95019.78;6253483;22;20046;-84
2022/04/13 07:46:37;;;;;;;28.95;9.80;;;;;;;4.52;46.63;94920.53;6253633;22;20012;-83
2022/04/13 07:49:06;;;;;;;17.58;7.05;;;;;;;5.95;45.92;95142.22;6248503;22;20860;-81
2022/04/13 07:51:43;;;;;;;21.63;7.53;;;;;;;6.15;44.89;95184.59;6248974;22;20014;-86
2022/04/13 07:54:11;;;;;;;20.88;8.48;;;;;;;4.24;45.52;94895.19;6236897;22;20065;-88
2022/04/13 07:56:47;;;;;;;22.05;8.05;;;;;;;3.88;45.94;94825.66;6247376;22;20091;-87
2022/04/13 07:59:16;;;;;;;18.75;7.88;;;;;;;4.31;45.37;94874.81;6247316;22;20019;-87
2022/04/13 08:01:44;;;;;;;16.08;7.43;;;;;;;9.26;44.19;95605.19;6249292;22;20023;-87
2022/04/13 08:04:12;;;;;;;15.82;6.97;;;;;;;9.25;44.17;95640.63;6252884;22;20626;-86
2022/04/13 08:06:40;;;;;;;14.00;6.88;;;;;;;7.10;43.12;95344.84;6250575;22;20016;-85
2022/04/13 08:09:15;;;;;;;16.42;8.05;;;;;;;6.29;43.06;95172.63;6250206;22;20103;-87
2022/04/13 08:11:52;;;;;;;15.88;7.05;;;;;;;9.49;42.59;95681.59;6248294;22;20075;-87
2022/04/13 08:16:43;;;;;;;16.92;6.82;;;;;;;9.36;42.78;95596.53;6220349;22;20050;-86
2022/04/13 08:19:09;;;;;;;18.60;6.13;;;;;;;7.33;42.81;95273.31;6219412;23;20262;-87
2022/04/13 08:21:34;;;;;;;14.63;6.75;;;;;;;7.90;42.46;95335.31;6190943;23;20263;-87
2022/04/13 08:24:13;;;;;;;14.80;6.65;;;;;;;9.60;42.25;95597.75;6191260;23;20040;-87
2022/04/13 08:26:39;;;;;;;12.52;6.60;;;;;;;8.13;42.36;95332.31;6192898;23;20019;-88
2022/04/13 08:29:05;;;;;;;27.70;8.35;;;;;;;8.07;42.42;95335.97;6193310;23;20012;-87
2022/04/13 08:31:34;;;;;;;14.68;6.70;;;;;;;4.88;39.57;94888.41;6177085;23;20012;-90
2022/04/13 08:34:01;;;;;;;13.98;6.75;;;;;;;4.74;40.09;94868.81;6194092;23;20478;-88
2022/04/13 08:36:30;;;;;;;17.88;6.78;;;;;;;6.43;40.04;95128.25;6219487;23;20128;-87
2022/04/13 08:38:56;;;;;;;14.60;6.55;;;;;;;6.39;38.96;95093.72;6196692;23;20034;-87
2022/04/13 08:41:48;;;;;;;15.88;6.93;;;;;;;9.66;38.86;95560.44;6196454;23;20016;-87
2022/04/13 08:44:28;;;;;;;18.52;5.90;;;;;;;5.33;39.24;94885.53;6193388;23;20022;-88
2022/04/13 08:46:59;;;;;;;17.23;5.63;;;;;;;9.98;37.90;95573.53;6198362;23;20119;-88
2022/04/13 08:49:31;;;;;;;13.55;6.93;;;;;;;4.93;38.26;94808.88;6186666;23;20237;-88
2022/04/13 08:52:02;;;;;;;15.45;6.18;;;;;;;4.69;37.26;94739.25;6192029;23;20015;-87
2022/04/13 08:54:31;;;;;;;11.10;5.13;;;;;;;7.08;35.68;95117.50;6222018;23;20039;-86
2022/04/13 08:56:57;;;;;;;12.10;5.30;;;;;;;5.26;36.09;94845.50;6192560;23;20046;-88
2022/04/13 08:59:56;;;;;;;12.02;5.55;;;;;;;10.44;36.32;95594.91;6202905;23;20012;-88
2022/04/13 09:02:47;;;;;;;13.77;5.25;;;;;;;8.92;39.09;95350.75;6197819;23;20054;-87
2022/04/13 09:05:27;;;;;;;11.57;5.20;;;;;;;10.53;38.11;95588.00;6193075;23;20081;-88
2022/04/13 09:08:05;;;;;;;13.82;5.80;;;;;;;10.49;36.07;95594.91;6212665;23;20035;-88
2022/04/13 09:14:03;;;;;;;12.77;5.80;;;;;;;9.11;34.50;95338.66;6103699;23;20021;-88
2022/04/13 09:16:31;;;;;;;9.27;5.20;;;;;;;6.04;35.22;94894.06;6168099;23;20059;-88
2022/04/13 09:19:01;;;;;;;10.35;5.00;;;;;;;10.80;35.27;95620.44;6192247;23;20059;-88
2022/04/13 09:21:27;;;;;;;11.50;5.03;;;;;;;5.98;34.31;94821.38;6192026;23;20125;-89
2022/04/13 09:24:01;;;;;;;7.15;4.38;;;;;;;5.75;31.80;94792.75;6190164;23;20094;-89
2022/04/13 09:26:27;;;;;;;5.80;3.80;;;;;;;9.16;31.74;95291.03;6194009;23;20008;-87
2022/04/13 09:28:53;;;;;;;10.27;4.57;;;;;;;9.49;31.85;95326.81;6187474;23;20267;-87
2022/04/13 09:31:20;;;;;;;7.53;3.72;;;;;;;8.05;31.55;95111.72;6190765;23;20012;-87
2022/04/13 09:33:46;;;;;;;9.70;4.22;;;;;;;9.21;32.71;95337.88;6226886;23;20012;-88
2022/04/13 09:36:13;;;;;;;7.15;4.43;;;;;;;5.83;32.33;94789.66;6198681;23;20015;-88
2022/04/13 09:38:39;;;;;;;9.57;3.90;;;;;;;8.75;30.72;95252.31;6200186;23;20016;-88
2022/04/13 09:41:07;;;;;;;6.30;3.53;;;;;;;9.43;31.20;95325.22;6189932;23;20243;-88
2022/04/13 09:43:33;;;;;;;10.95;4.32;;;;;;;9.50;31.75;95362.03;6194473;23;20336;-88
2022/04/13 09:45:58;;;;;;;6.60;3.15;;;;;;;7.39;32.59;94969.97;6192972;23;20027;-87
2022/04/13 09:48:26;;;;;;;16.48;5.07;;;;;;;6.86;33.09;94877.72;6190380;23;20038;-88
2022/04/13 09:50:59;;;;;;;11.23;3.90;;;;;;;8.43;31.08;95104.44;6188154;23;20327;-85
2022/04/13 09:53:27;;;;;;;6.20;2.97;;;;;;;6.31;30.26;94753.66;6198442;23;20012;-89
2022/04/13 09:55:59;;;;;;;14.68;4.80;;;;;;;7.26;31.62;94855.16;6200177;23;20012;-87
2022/04/13 09:58:28;;;;;;;12.05;4.15;;;;;;;12.49;30.57;95579.94;6195955;23;20351;-88
2022/04/13 10:00:58;;;;;;;9.25;4.18;;;;;;;10.16;28.93;95041.44;6197034;23;20165;-88
2022/04/13 10:03:23;;;;;;;9.07;3.45;;;;;;;12.49;26.35;95268.72;6200288;23;20012;-87
2022/04/13 10:05:58;;;;;;;8.05;3.58;;;;;;;15.29;25.19;95508.94;6197283;23;20012;-87
2022/04/13 10:08:30;;;;;;;5.53;3.50;;;;;;;11.82;24.39;94934.84;6200813;23;20414;-87
2022/04/13 10:11:38;;;;;;;5.68;3.10;;;;;;;15.63;23.07;95303.56;6227211;23;20008;-86
2022/04/13 10:14:07;;;;;;;8.27;3.53;;;;;;;18.03;22.41;95493.50;6224029;23;20015;-86
2022/04/13 10:16:39;;;;;;;17.42;6.00;;;;;;;17.27;21.93;95310.59;6246700;22;20141;-85
2022/04/13 10:19:05;;;;;;;8.02;3.30;;;;;;;18.22;19.94;95308.00;6255336;22;20049;-86
2022/04/13 10:21:42;;;;;;;13.57;3.40;;;;;;;19.62;19.24;95461.28;6256494;22;20495;-86
2022/04/13 10:27:34;;;;;;;6.85;3.50;;;;;;;19.42;19.23;95177.69;6145862;22;20013;-87
2022/04/13 10:30:06;;;;;;;9.65;3.47;;;;;;;21.99;18.69;95520.38;6252179;22;20034;-87
2022/04/13 10:32:36;;;;;;;8.70;4.30;;;;;;;19.73;19.66;95507.47;6254052;22;20272;-87
2022/04/13 10:35:05;;;;;;;8.05;4.03;;;;;;;19.99;20.57;95541.22;6249043;22;20670;-85
2022/04/13 10:37:34;;;;;;;13.77;4.00;;;;;;;17.44;19.31;95068.56;6244545;22;20153;-85
2022/04/13 10:40:01;;;;;;;11.07;3.42;;;;;;;16.76;18.77;94954.28;6243028;22;20513;-89
2022/04/13 10:42:31;;;;;;;9.07;3.22;;;;;;;16.28;19.46;94856.19;6246757;22;20475;-87
2022/04/13 10:45:16;;;;;;;7.38;3.03;;;;;;;18.21;18.85;95225.91;6247111;22;20026;-87
2022/04/13 10:47:59;;;;;;;4.22;2.90;;;;;;;19.30;18.62;95308.63;6246274;22;20485;-85
2022/04/13 10:51:02;;;;;;;10.13;4.25;;;;;;;20.37;19.58;95498.09;6249472;22;20161;-86
2022/04/13 10:53:29;;;;;;;8.98;4.40;;;;;;;20.28;19.11;95434.63;6251561;22;20020;-85
2022/04/13 10:56:01;;;;;;;8.90;3.97;;;;;;;16.91;20.20;94962.59;6251950;22;20008;-86
2022/04/13 10:59:00;;;;;;;9.48;4.10;;;;;;;19.30;19.39;95316.69;6252159;22;20016;-85
2022/04/13 11:01:30;;;;;;;8.50;3.88;;;;;;;16.74;19.30;94964.50;6247448;22;20069;-86
2022/04/13 11:03:57;;;;;;;8.82;3.70;;;;;;;20.28;19.43;95520.81;6246895;22;20446;-85
2022/04/13 11:06:23;;;;;;;10.38;3.67;;;;;;;18.51;19.51;95202.56;6251276;22;20551;-85
2022/04/13 11:09:09;;;;;;;7.10;4.10;;;;;;;20.79;20.28;95490.03;6250783;22;20186;-86
2022/04/13 11:11:37;;;;;;;11.32;4.22;;;;;;;19.88;19.05;95297.00;6247693;22;20047;-86
2022/04/13 11:14:23;;;;;;;8.48;3.83;;;;;;;17.38;18.88;94949.22;6246643;22;20705;-84
2022/04/13 11:17:07;;;;;;;11.55;4.20;;;;;;;20.89;19.46;95475.34;6244856;22;20036;-86
2022/04/13 11:19:33;;;;;;;8.40;3.85;;;;;;;20.90;19.97;95476.94;6246637;22;20015;-86
2022/04/13 11:21:58;;;;;;;13.88;3.83;;;;;;;21.18;19.20;95472.56;6244838;22;20042;-84
2022/04/13 11:24:58;;;;;;;7.43;3.97;;;;;;;20.40;19.65;95359.28;6249140;22;20015;-84
2022/04/13 11:27:25;;;;;;;14.90;5.10;;;;;;;19.84;20.23;95344.50;6185124;22;20015;-86
2022/04/13 11:30:02;;;;;;;10.35;4.13;;;;;;;19.89;20.09;95372.03;6251479;22;20101;-85
2022/04/13 11:32:33;;;;;;;10.93;3.50;;;;;;;20.14;20.30;95431.41;6253454;22;20019;-85
2022/04/13 11:35:02;;;;;;;6.75;2.60;;;;;;;19.60;19.65;95310.19;6249655;22;20019;-86
2022/04/13 11:37:34;;;;;;;9.50;3.83;;;;;;;21.11;19.80;95465.00;6251238;22;20012;-85
2022/04/13 11:40:02;;;;;;;;;;;;;;;21.70;20.10;95461.16;6249708;22;20022;-86
2022/04/13 11:42:34;;;;;;;5.60;2.97;;;;;;;21.21;20.06;95458.38;6251220;22;19923;-85
2022/04/13 11:45:23;;;;;;;14.30;3.15;;;;;;;20.66;20.36;95432.59;6255555;22;20128;-85
2022/04/13 11:47:59;;;;;;;7.20;2.97;;;;;;;20.61;20.04;95457.03;6251189;22;20023;-84
2022/04/13 11:50:28;;;;;;;8.05;3.00;;;;;;;20.88;19.79;95438.72;6250295;22;20501;-84
2022/04/13 11:53:09;;;;;;;9.82;3.55;;;;;;;20.80;20.16;95448.47;6253382;22;20017;-85